createdAt,value
2023-04-06T00:00:27.930Z,9.34
2023-04-06T00:01:29.942Z,9.29
2023-04-06T00:02:31.990Z,9.35
2023-04-06T00:03:34.914Z,9.23
2023-04-06T00:04:38.035Z,9.18
2023-04-06T00:05:40.035Z,9.29
2023-04-06T00:06:42.090Z,9.21
2023-04-06T00:07:44.855Z,9.28
2023-04-06T00:08:46.842Z,9.26
2023-04-06T00:09:48.802Z,9.29
2023-04-06T00:10:50.996Z,9.30
2023-04-06T00:11:52.862Z,9.34
2023-04-06T00:12:55.429Z,9.29
2023-04-06T00:13:59.036Z,9.27
2023-04-06T00:15:01.386Z,9.28
2023-04-06T00:16:03.812Z,9.31
2023-04-06T00:17:07.016Z,9.23
2023-04-06T00:18:09.985Z,9.28
2023-04-06T00:19:12.143Z,9.19
2023-04-06T00:20:15.600Z,9.19
2023-04-06T00:21:17.886Z,9.25
2023-04-06T00:22:20.686Z,9.31
2023-04-06T00:23:22.574Z,9.29
2023-04-06T00:24:24.713Z,9.23
2023-04-06T00:25:26.912Z,9.20
2023-04-06T00:26:29.102Z,9.18
2023-04-06T00:27:31.282Z,9.23
2023-04-06T00:28:34.750Z,9.12
2023-04-06T00:29:36.773Z,9.23
2023-04-06T00:30:38.943Z,9.19
2023-04-06T00:31:40.995Z,9.23
2023-04-06T00:32:42.994Z,9.23
2023-04-06T00:33:45.063Z,9.19
2023-04-06T00:34:46.965Z,9.24
2023-04-06T00:35:49.833Z,9.28
2023-04-06T00:36:52.204Z,9.27
2023-04-06T00:37:54.181Z,9.21
2023-04-06T00:38:56.050Z,9.26
2023-04-06T00:39:58.547Z,9.30
2023-04-06T00:41:00.611Z,9.26
2023-04-06T00:42:06.861Z,9.25
2023-04-06T00:43:08.894Z,9.20
2023-04-06T00:44:10.762Z,9.20
2023-04-06T00:45:12.618Z,9.24
2023-04-06T00:46:14.634Z,9.20
2023-04-06T00:47:16.828Z,9.20
2023-04-06T00:48:18.734Z,9.28
2023-04-06T00:49:20.632Z,9.19
2023-04-06T00:50:22.591Z,9.15
2023-04-06T00:51:24.766Z,9.22
2023-04-06T00:52:26.799Z,9.26
2023-04-06T00:53:28.691Z,9.18
2023-04-06T00:54:30.549Z,9.27
2023-04-06T00:55:32.536Z,9.20
2023-04-06T00:56:36.052Z,9.16
2023-04-06T00:57:38.738Z,9.16
2023-04-06T00:58:40.815Z,9.12
2023-04-06T00:59:43.312Z,9.04
2023-04-06T01:00:45.682Z,9.07
2023-04-06T01:01:49.735Z,9.11
2023-04-06T01:02:51.758Z,9.18
2023-04-06T01:03:53.764Z,9.16
2023-04-06T01:04:56.585Z,9.18
2023-04-06T01:05:58.629Z,9.10
2023-04-06T01:07:01.739Z,9.10
2023-04-06T01:08:03.612Z,9.03
2023-04-06T01:09:05.496Z,9.04
2023-04-06T01:10:09.092Z,9.07
2023-04-06T01:11:11.075Z,9.11
2023-04-06T01:12:13.041Z,9.06
2023-04-06T01:13:14.895Z,9.16
2023-04-06T01:14:17.000Z,9.11
2023-04-06T01:15:20.767Z,9.08
2023-04-06T01:16:24.100Z,9.15
2023-04-06T01:17:26.397Z,9.10
2023-04-06T01:18:29.420Z,9.15
2023-04-06T01:19:31.439Z,9.14
2023-04-06T01:20:33.510Z,9.14
2023-04-06T01:21:37.790Z,9.14
2023-04-06T01:22:39.825Z,9.17
2023-04-06T01:23:45.619Z,9.08
2023-04-06T01:24:47.669Z,9.13
2023-04-06T01:25:49.543Z,9.13
2023-04-06T01:26:51.620Z,9.16
2023-04-06T01:27:54.930Z,9.15
2023-04-06T01:28:57.455Z,9.05
2023-04-06T01:30:00.523Z,9.14
2023-04-06T01:31:02.536Z,9.15
2023-04-06T01:32:04.996Z,9.19
2023-04-06T01:33:06.943Z,9.10
2023-04-06T01:34:08.869Z,9.13
2023-04-06T01:35:11.850Z,9.08
2023-04-06T01:36:15.639Z,9.11
2023-04-06T01:37:17.570Z,9.16
2023-04-06T01:38:19.488Z,9.16
2023-04-06T01:39:21.475Z,9.15
2023-04-06T01:40:23.446Z,9.08
2023-04-06T01:41:25.638Z,9.11
2023-04-06T01:42:27.583Z,9.15
2023-04-06T01:43:29.473Z,9.14
2023-04-06T01:44:31.512Z,9.11
2023-04-06T01:45:33.505Z,9.18
2023-04-06T01:46:36.962Z,9.21
2023-04-06T01:47:39.651Z,9.14
2023-04-06T01:48:42.294Z,9.09
2023-04-06T01:49:44.383Z,9.08
2023-04-06T01:50:46.498Z,9.13
2023-04-06T01:51:48.423Z,9.17
2023-04-06T01:52:50.477Z,9.13
2023-04-06T01:53:52.551Z,9.14
2023-04-06T01:54:54.536Z,9.11
2023-04-06T01:55:56.401Z,9.11
2023-04-06T01:56:58.360Z,9.15
2023-04-06T01:58:00.247Z,9.13
2023-04-06T01:59:02.494Z,9.19
2023-04-06T02:00:06.264Z,9.19
2023-04-06T02:01:08.588Z,9.03
2023-04-06T02:02:10.803Z,9.10
2023-04-06T02:03:12.784Z,9.08
2023-04-06T02:04:14.727Z,9.09
2023-04-06T02:05:19.584Z,9.10
2023-04-06T02:06:22.348Z,9.15
2023-04-06T02:07:24.255Z,9.10
2023-04-06T02:08:26.630Z,9.16
2023-04-06T02:09:28.897Z,9.10
2023-04-06T02:10:31.590Z,9.02
2023-04-06T02:11:33.479Z,9.07
2023-04-06T02:12:35.354Z,9.14
2023-04-06T02:13:37.312Z,9.13
2023-04-06T02:14:40.000Z,9.18
2023-04-06T02:15:42.792Z,9.14
2023-04-06T02:16:46.121Z,9.15
2023-04-06T02:17:48.178Z,9.13
2023-04-06T02:18:50.391Z,9.15
2023-04-06T02:19:53.367Z,9.06
2023-04-06T02:20:55.753Z,9.15
2023-04-06T02:21:58.484Z,9.09
2023-04-06T02:23:00.398Z,9.11
2023-04-06T02:24:02.506Z,9.02
2023-04-06T02:25:05.205Z,9.07
2023-04-06T02:26:07.192Z,9.05
2023-04-06T02:27:09.084Z,8.98
2023-04-06T02:28:11.001Z,9.04
2023-04-06T02:29:12.870Z,9.01
2023-04-06T02:30:15.460Z,9.00
2023-04-06T02:31:18.263Z,9.00
2023-04-06T02:32:20.305Z,8.92
2023-04-06T02:33:22.271Z,8.96
2023-04-06T02:34:24.153Z,9.00
2023-04-06T02:35:26.200Z,8.97
2023-04-06T02:36:28.257Z,9.01
2023-04-06T02:37:30.157Z,8.99
2023-04-06T02:38:32.265Z,9.07
2023-04-06T02:39:34.137Z,8.97
2023-04-06T02:40:36.385Z,9.00
2023-04-06T02:41:39.571Z,9.04
2023-04-06T02:42:41.568Z,9.00
2023-04-06T02:43:43.448Z,8.97
2023-04-06T02:44:45.301Z,8.90
2023-04-06T02:45:47.416Z,8.93
2023-04-06T02:46:49.728Z,9.00
2023-04-06T02:47:51.650Z,8.99
2023-04-06T02:48:53.617Z,8.98
2023-04-06T02:49:55.716Z,8.97
2023-04-06T02:50:57.951Z,9.00
2023-04-06T02:52:00.336Z,8.96
2023-04-06T02:53:02.232Z,9.01
2023-04-06T02:54:04.169Z,8.88
2023-04-06T02:55:07.381Z,8.96
2023-04-06T02:56:09.562Z,8.92
2023-04-06T02:57:11.421Z,8.95
2023-04-06T02:58:13.375Z,8.92
2023-04-06T02:59:15.293Z,8.95
2023-04-06T03:00:18.602Z,9.00
2023-04-06T03:01:20.520Z,9.00
2023-04-06T03:02:22.571Z,9.01
2023-04-06T03:03:24.678Z,8.96
2023-04-06T03:04:26.902Z,8.98
2023-04-06T03:05:28.879Z,8.98
2023-04-06T03:06:30.938Z,8.98
2023-04-06T03:07:32.803Z,8.98
2023-04-06T03:08:34.650Z,8.96
2023-04-06T03:09:38.165Z,8.92
2023-04-06T03:10:40.466Z,8.90
2023-04-06T03:11:43.576Z,8.96
2023-04-06T03:12:45.449Z,8.97
2023-04-06T03:13:47.369Z,8.96
2023-04-06T03:14:49.324Z,8.94
2023-04-06T03:15:51.242Z,8.99
2023-04-06T03:16:53.379Z,8.91
2023-04-06T03:17:55.759Z,8.97
2023-04-06T03:18:58.795Z,8.92
2023-04-06T03:20:01.149Z,8.86
2023-04-06T03:21:03.028Z,8.91
2023-04-06T03:22:04.911Z,8.89
2023-04-06T03:23:06.879Z,8.92
2023-04-06T03:24:10.768Z,8.89
2023-04-06T03:25:13.252Z,8.89
2023-04-06T03:26:16.147Z,8.86
2023-04-06T03:27:18.035Z,8.84
2023-04-06T03:28:20.033Z,8.89
2023-04-06T03:29:22.120Z,8.86
2023-04-06T03:30:24.187Z,8.92
2023-04-06T03:31:27.140Z,8.94
2023-04-06T03:32:29.137Z,8.89
2023-04-06T03:33:32.626Z,8.96
2023-04-06T03:34:34.529Z,8.92
2023-04-06T03:35:37.397Z,8.86
2023-04-06T03:36:39.591Z,8.91
2023-04-06T03:37:41.476Z,8.88
2023-04-06T03:38:43.358Z,8.93
2023-04-06T03:39:45.228Z,8.97
2023-04-06T03:40:47.188Z,8.92
2023-04-06T03:41:49.044Z,8.93
2023-04-06T03:42:51.427Z,8.90
2023-04-06T03:43:53.369Z,8.85
2023-04-06T03:44:55.234Z,8.96
2023-04-06T03:45:57.166Z,9.02
2023-04-06T03:46:59.296Z,9.00
2023-04-06T03:48:01.400Z,8.97
2023-04-06T03:49:03.697Z,8.95
2023-04-06T03:50:06.916Z,8.91
2023-04-06T03:51:08.845Z,8.92
2023-04-06T03:52:10.727Z,8.93
2023-04-06T03:53:12.693Z,8.99
2023-04-06T03:54:14.571Z,9.04
2023-04-06T03:55:16.439Z,9.00
2023-04-06T03:56:18.427Z,9.02
2023-04-06T03:57:20.477Z,8.99
2023-04-06T03:58:22.442Z,9.05
2023-04-06T03:59:24.352Z,8.98
2023-04-06T04:00:27.217Z,8.96
2023-04-06T04:01:29.188Z,8.97
2023-04-06T04:02:32.117Z,9.03
2023-04-06T04:03:34.139Z,8.95
2023-04-06T04:04:36.470Z,9.02
2023-04-06T04:05:38.420Z,8.99
2023-04-06T04:06:43.020Z,9.08
2023-04-06T04:07:44.918Z,9.02
2023-04-06T04:08:46.811Z,9.01
2023-04-06T04:09:48.702Z,9.04
2023-04-06T04:10:51.048Z,8.98
2023-04-06T04:11:53.012Z,9.00
2023-04-06T04:12:54.990Z,9.06
2023-04-06T04:13:56.920Z,9.04
2023-04-06T04:14:58.894Z,9.10
2023-04-06T04:16:01.010Z,9.15
2023-04-06T04:17:03.189Z,9.18
2023-04-06T04:18:05.304Z,9.14
2023-04-06T04:19:09.509Z,9.16
2023-04-06T04:20:11.966Z,9.21
2023-04-06T04:21:13.864Z,9.23
2023-04-06T04:22:15.905Z,9.17
2023-04-06T04:23:17.919Z,9.30
2023-04-06T04:24:19.954Z,9.14
2023-04-06T04:25:21.887Z,9.26
2023-04-06T04:26:24.001Z,9.23
2023-04-06T04:27:25.965Z,9.25
2023-04-06T04:28:29.351Z,9.28
2023-04-06T04:29:31.354Z,9.23
2023-04-06T04:30:33.465Z,9.26
2023-04-06T04:31:35.371Z,9.32
2023-04-06T04:32:37.492Z,9.35
2023-04-06T04:33:40.390Z,9.29
2023-04-06T04:34:42.434Z,9.33
2023-04-06T04:35:44.469Z,9.29
2023-04-06T04:36:48.157Z,9.27
2023-04-06T04:37:50.200Z,9.31
2023-04-06T04:40:04.937Z,9.38
2023-04-06T04:41:07.548Z,9.30
2023-04-06T04:42:09.517Z,9.34
2023-04-06T04:43:11.428Z,9.34
2023-04-06T04:44:14.407Z,9.35
2023-04-06T04:45:17.014Z,9.45
2023-04-06T04:46:19.241Z,9.39
2023-04-06T04:47:21.460Z,9.42
2023-04-06T04:48:23.328Z,9.44
2023-04-06T04:49:25.195Z,9.39
2023-04-06T04:50:27.407Z,9.43
2023-04-06T04:51:29.261Z,9.43
2023-04-06T04:52:31.108Z,9.41
2023-04-06T04:53:32.980Z,9.37
2023-04-06T04:54:34.855Z,9.38
2023-04-06T04:55:36.808Z,9.37
2023-04-06T04:56:38.866Z,9.48
2023-04-06T04:57:40.757Z,9.46
2023-04-06T04:58:42.735Z,9.36
2023-04-06T04:59:44.586Z,9.46
2023-04-06T05:00:47.008Z,9.40
2023-04-06T05:01:54.821Z,9.49
2023-04-06T05:02:53.329Z,9.41
2023-04-06T05:03:55.463Z,9.42
2023-04-06T05:04:57.556Z,9.50
2023-04-06T05:05:59.477Z,9.56
2023-04-06T05:07:09.306Z,9.60
2023-04-06T05:08:12.506Z,9.59
2023-04-06T05:09:14.391Z,9.55
2023-04-06T05:10:16.805Z,9.53
2023-04-06T05:11:18.893Z,9.55
2023-04-06T05:12:21.302Z,9.54
2023-04-06T05:13:23.710Z,9.51
2023-04-06T05:14:26.920Z,9.61
2023-04-06T05:15:28.991Z,9.59
2023-04-06T05:16:31.164Z,9.68
2023-04-06T05:17:34.245Z,9.70
2023-04-06T05:18:36.263Z,9.68
2023-04-06T05:19:38.277Z,9.69
2023-04-06T05:20:41.103Z,9.75
2023-04-06T05:21:43.554Z,9.70
2023-04-06T05:22:45.487Z,9.76
2023-04-06T05:23:47.424Z,9.69
2023-04-06T05:24:49.296Z,9.72
2023-04-06T05:25:52.297Z,9.81
2023-04-06T05:26:54.984Z,9.85
2023-04-06T05:27:58.803Z,9.87
2023-04-06T05:29:01.532Z,9.84
2023-04-06T05:30:05.211Z,9.85
2023-04-06T05:31:07.558Z,9.90
2023-04-06T05:32:09.688Z,9.95
2023-04-06T05:33:12.062Z,9.91
2023-04-06T05:34:14.871Z,9.96
2023-04-06T05:35:17.641Z,10.00
2023-04-06T05:36:19.810Z,10.06
2023-04-06T05:37:21.665Z,10.17
2023-04-06T05:38:23.533Z,10.23
2023-04-06T05:39:25.523Z,10.25
2023-04-06T05:40:27.509Z,10.32
2023-04-06T05:41:29.410Z,10.45
2023-04-06T05:42:42.198Z,10.43
2023-04-06T05:43:45.546Z,10.48
2023-04-06T05:44:49.335Z,10.51
2023-04-06T05:45:51.250Z,10.69
2023-04-06T05:46:53.328Z,10.72
2023-04-06T05:47:55.415Z,10.79
2023-04-06T05:48:58.529Z,10.89
2023-04-06T05:50:00.593Z,10.85
2023-04-06T05:51:02.826Z,10.85
2023-04-06T05:52:04.752Z,10.92
2023-04-06T05:53:06.739Z,10.97
2023-04-06T05:54:08.610Z,10.96
2023-04-06T05:55:11.547Z,10.91
2023-04-06T05:56:14.056Z,10.92
2023-04-06T05:57:15.923Z,10.82
2023-04-06T05:58:17.806Z,10.97
2023-04-06T05:59:19.823Z,10.93
2023-04-06T06:00:22.472Z,11.01
2023-04-06T06:01:24.909Z,10.98
2023-04-06T06:02:27.163Z,10.94
2023-04-06T06:03:29.603Z,10.91
2023-04-06T06:04:31.659Z,10.96
2023-04-06T06:05:33.641Z,10.85
2023-04-06T06:06:35.958Z,11.00
2023-04-06T06:07:39.108Z,11.00
2023-04-06T06:08:41.121Z,10.93
2023-04-06T06:09:43.147Z,10.85
2023-04-06T06:10:45.336Z,10.97
2023-04-06T06:11:47.312Z,11.05
2023-04-06T06:12:49.200Z,11.02
2023-04-06T06:13:51.273Z,10.99
2023-04-06T06:14:53.221Z,11.01
2023-04-06T06:15:55.419Z,11.09
2023-04-06T06:16:57.674Z,11.03
2023-04-06T06:17:59.628Z,11.15
2023-04-06T06:19:01.610Z,11.24
2023-04-06T06:20:06.562Z,11.33
2023-04-06T06:21:08.555Z,11.29
2023-04-06T06:22:10.484Z,11.33
2023-04-06T06:23:12.462Z,11.42
2023-04-06T06:24:14.357Z,11.40
2023-04-06T06:25:16.641Z,11.42
2023-04-06T06:26:19.844Z,11.44
2023-04-06T06:27:22.618Z,11.47
2023-04-06T06:28:24.587Z,11.53
2023-04-06T06:29:26.489Z,11.56
2023-04-06T06:30:28.501Z,11.69
2023-04-06T06:31:30.598Z,11.72
2023-04-06T06:32:33.311Z,11.74
2023-04-06T06:33:35.332Z,11.77
2023-04-06T06:34:37.209Z,11.81
2023-04-06T06:35:39.276Z,11.57
2023-04-06T06:36:45.861Z,11.65
2023-04-06T06:37:49.965Z,11.70
2023-04-06T06:38:51.868Z,11.75
2023-04-06T06:39:53.756Z,11.79
2023-04-06T06:40:55.999Z,11.75
2023-04-06T06:41:58.155Z,11.73
2023-04-06T06:43:00.347Z,11.64
2023-04-06T06:44:02.496Z,11.72
2023-04-06T06:45:06.110Z,11.81
2023-04-06T06:46:08.564Z,11.75
2023-04-06T06:47:11.864Z,11.76
2023-04-06T06:48:13.830Z,11.78
2023-04-06T06:49:17.071Z,11.76
2023-04-06T06:50:19.660Z,11.83
2023-04-06T06:51:21.650Z,11.74
2023-04-06T06:52:23.796Z,11.78
2023-04-06T06:53:25.767Z,11.77
2023-04-06T06:54:27.682Z,11.79
2023-04-06T06:55:29.617Z,11.80
2023-04-06T06:56:31.707Z,11.87
2023-04-06T06:57:33.904Z,11.91
2023-04-06T06:58:35.890Z,11.85
2023-04-06T06:59:37.925Z,11.86
2023-04-06T07:00:40.148Z,11.77
2023-04-06T07:01:43.277Z,11.78
2023-04-06T07:02:45.373Z,11.80
2023-04-06T07:03:47.438Z,11.81
2023-04-06T07:04:49.665Z,11.77
2023-04-06T07:05:52.771Z,11.70
2023-04-06T07:06:55.196Z,11.78
2023-04-06T07:07:57.107Z,11.77
2023-04-06T07:08:59.171Z,11.73
2023-04-06T07:10:01.502Z,11.71
2023-04-06T07:11:03.620Z,11.72
2023-04-06T07:12:05.906Z,11.66
2023-04-06T07:13:07.916Z,11.66
2023-04-06T07:14:09.936Z,11.70
2023-04-06T07:15:12.275Z,11.70
2023-04-06T07:16:15.074Z,11.78
2023-04-06T07:17:17.116Z,11.76
2023-04-06T07:18:20.497Z,11.80
2023-04-06T07:19:22.534Z,11.83
2023-04-06T07:20:26.045Z,11.89
2023-04-06T07:21:29.054Z,11.79
2023-04-06T07:22:31.313Z,11.82
2023-04-06T07:23:33.523Z,11.87
2023-04-06T07:24:35.552Z,11.73
2023-04-06T07:25:37.482Z,11.74
2023-04-06T07:26:39.716Z,11.81
2023-04-06T07:27:41.675Z,11.85
2023-04-06T07:28:43.642Z,11.88
2023-04-06T07:29:45.544Z,11.84
2023-04-06T07:30:49.760Z,11.89
2023-04-06T07:31:51.688Z,11.96
2023-04-06T07:32:53.978Z,11.95
2023-04-06T07:33:55.955Z,11.76
2023-04-06T07:34:57.827Z,11.79
2023-04-06T07:35:59.849Z,11.78
2023-04-06T07:37:03.985Z,11.88
2023-04-06T07:38:05.888Z,11.81
2023-04-06T07:39:07.870Z,11.86
2023-04-06T07:40:10.804Z,11.79
2023-04-06T07:41:12.703Z,11.69
2023-04-06T07:42:14.676Z,11.76
2023-04-06T07:43:16.665Z,11.79
2023-04-06T07:44:18.642Z,11.76
2023-04-06T07:45:20.810Z,11.85
2023-04-06T07:46:23.003Z,11.88
2023-04-06T07:47:25.102Z,11.95
2023-04-06T07:48:27.131Z,11.97
2023-04-06T07:49:29.305Z,12.06
2023-04-06T07:50:31.341Z,12.18
2023-04-06T07:51:35.213Z,12.14
2023-04-06T07:52:39.292Z,12.32
2023-04-06T07:53:42.662Z,12.48
2023-04-06T07:54:44.631Z,12.59
2023-04-06T07:55:46.511Z,12.55
2023-04-06T07:56:48.943Z,12.57
2023-04-06T07:57:51.068Z,12.49
2023-04-06T07:58:54.356Z,12.69
2023-04-06T07:59:56.683Z,12.69
2023-04-06T08:00:58.677Z,12.66
2023-04-06T08:02:01.234Z,12.73
2023-04-06T08:03:03.463Z,12.80
2023-04-06T08:04:05.594Z,12.83
2023-04-06T08:05:08.617Z,12.91
2023-04-06T08:06:11.379Z,13.00
2023-04-06T08:07:13.442Z,13.00
2023-04-06T08:08:15.328Z,12.95
2023-04-06T08:09:18.402Z,12.89
2023-04-06T08:10:20.690Z,12.91
2023-04-06T08:11:22.655Z,13.02
2023-04-06T08:12:24.696Z,12.99
2023-04-06T08:13:28.216Z,12.93
2023-04-06T08:14:31.981Z,12.91
2023-04-06T08:15:34.271Z,12.84
2023-04-06T08:16:37.757Z,12.86
2023-04-06T08:17:39.801Z,12.96
2023-04-06T08:18:41.837Z,13.07
2023-04-06T08:19:45.206Z,13.16
2023-04-06T08:20:47.490Z,13.19
2023-04-06T08:21:49.461Z,13.27
2023-04-06T08:22:53.547Z,13.36
2023-04-06T08:23:55.196Z,13.38
2023-04-06T08:24:57.166Z,13.42
2023-04-06T08:25:59.141Z,13.45
2023-04-06T08:27:01.349Z,13.63
2023-04-06T08:28:04.371Z,13.67
2023-04-06T08:29:06.526Z,13.80
2023-04-06T08:30:11.005Z,13.98
2023-04-06T08:31:13.212Z,14.06
2023-04-06T08:32:15.248Z,14.12
2023-04-06T08:33:17.277Z,14.14
2023-04-06T08:34:19.159Z,14.23
2023-04-06T08:35:21.504Z,14.26
2023-04-06T08:36:25.242Z,14.28
2023-04-06T08:37:27.777Z,14.39
2023-04-06T08:38:29.801Z,14.43
2023-04-06T08:39:31.690Z,14.46
2023-04-06T08:40:39.385Z,14.37
2023-04-06T08:41:44.137Z,14.39
2023-04-06T08:44:01.243Z,14.33
2023-04-06T08:45:03.548Z,14.17
2023-04-06T08:46:06.300Z,14.20
2023-04-06T08:47:08.590Z,14.21
2023-04-06T08:48:13.894Z,14.23
2023-04-06T08:49:16.596Z,14.20
2023-04-06T08:50:19.474Z,14.18
2023-04-06T08:51:23.862Z,14.15
2023-04-06T08:52:27.207Z,14.20
2023-04-06T08:53:29.320Z,14.14
2023-04-06T08:54:31.171Z,14.09
2023-04-06T08:55:34.054Z,14.00
2023-04-06T08:56:39.071Z,13.84
2023-04-06T08:57:43.111Z,13.76
2023-04-06T08:58:45.472Z,13.80
2023-04-06T08:59:48.573Z,13.76
2023-04-06T09:00:52.091Z,13.72
2023-04-06T09:01:56.342Z,13.70
2023-04-06T09:03:00.528Z,13.62
2023-04-06T09:04:05.344Z,13.50
2023-04-06T09:05:09.380Z,13.48
2023-04-06T09:06:13.362Z,13.42
2023-04-06T09:07:16.873Z,13.39
2023-04-06T09:08:19.583Z,13.29
2023-04-06T09:09:24.208Z,13.36
2023-04-06T09:10:25.530Z,13.31
2023-04-06T09:11:27.505Z,13.30
2023-04-06T09:12:31.964Z,13.25
2023-04-06T09:13:47.998Z,13.27
2023-04-06T09:14:51.212Z,13.27
2023-04-06T09:16:04.826Z,13.12
2023-04-06T09:17:07.082Z,12.96
2023-04-06T09:18:10.692Z,12.86
2023-04-06T09:19:13.058Z,12.83
2023-04-06T09:20:19.713Z,12.77
2023-04-06T09:21:25.351Z,12.73
2023-04-06T09:22:25.765Z,12.77
2023-04-06T09:23:28.093Z,12.70
2023-04-06T09:24:53.223Z,12.61
2023-04-06T09:26:12.793Z,12.54
2023-04-06T09:27:16.070Z,12.50
2023-04-06T09:28:18.034Z,12.44
2023-04-06T09:29:24.357Z,12.45
2023-04-06T09:30:26.961Z,12.31
2023-04-06T09:31:32.153Z,12.41
2023-04-06T09:32:47.218Z,12.28
2023-04-06T09:33:49.698Z,12.29
2023-04-06T09:34:51.773Z,12.18
2023-04-06T09:35:53.760Z,12.15
2023-04-06T09:36:56.003Z,12.16
2023-04-06T09:37:57.990Z,12.12
2023-04-06T09:39:02.818Z,12.11
2023-04-06T09:40:06.764Z,12.14
2023-04-06T09:41:08.757Z,12.02
2023-04-06T09:42:11.743Z,11.98
2023-04-06T09:43:17.663Z,11.88
2023-04-06T09:44:19.666Z,11.99
2023-04-06T09:45:21.643Z,11.95
2023-04-06T09:46:23.993Z,11.99
2023-04-06T09:47:29.013Z,11.98
2023-04-06T09:48:33.507Z,12.01
2023-04-06T09:49:35.502Z,12.01
2023-04-06T09:50:38.964Z,11.99
2023-04-06T09:51:47.240Z,12.00
2023-04-06T09:52:53.091Z,12.01
2023-04-06T09:53:56.819Z,12.01
2023-04-06T09:55:02.688Z,11.90
2023-04-06T09:56:08.245Z,12.00
2023-04-06T09:57:15.077Z,11.87
2023-04-06T09:58:18.275Z,11.94
2023-04-06T09:59:33.107Z,11.91
2023-04-06T10:00:53.748Z,11.91
2023-04-06T10:01:58.671Z,11.84
2023-04-06T10:03:11.334Z,11.78
2023-04-06T10:04:32.266Z,11.78
2023-04-06T10:05:38.066Z,11.85
2023-04-06T10:06:40.334Z,11.81
2023-04-06T10:07:58.995Z,11.78
2023-04-06T10:08:52.005Z,11.85
2023-04-06T10:09:56.095Z,11.87
2023-04-06T10:10:59.060Z,11.85
2023-04-06T10:12:04.969Z,11.91
2023-04-06T10:13:08.052Z,11.90
2023-04-06T10:14:10.581Z,11.85
2023-04-06T10:15:13.006Z,11.81
2023-04-06T10:16:15.933Z,11.82
2023-04-06T10:17:17.991Z,11.87
2023-04-06T10:18:20.058Z,11.83
2023-04-06T10:20:45.842Z,11.84
2023-04-06T10:21:51.441Z,11.83
2023-04-06T10:22:57.154Z,11.71
2023-04-06T10:24:02.076Z,11.80
2023-04-06T10:25:04.741Z,11.75
2023-04-06T10:26:10.908Z,11.69
2023-04-06T10:27:13.134Z,11.76
2023-04-06T10:28:15.480Z,11.75
2023-04-06T10:29:17.556Z,11.72
2023-04-06T10:30:20.077Z,11.75
2023-04-06T10:31:28.921Z,11.74
2023-04-06T10:32:37.040Z,11.72
2023-04-06T10:33:39.306Z,11.75
2023-04-06T10:34:41.170Z,11.69
2023-04-06T10:35:43.457Z,11.62
2023-04-06T10:36:45.786Z,11.63
2023-04-06T10:37:53.967Z,11.63
2023-04-06T10:38:59.548Z,11.66
2023-04-06T10:40:01.676Z,11.64
2023-04-06T10:41:08.622Z,11.62
2023-04-06T10:42:10.654Z,11.64
2023-04-06T10:43:14.711Z,11.62
2023-04-06T10:44:24.392Z,11.54
2023-04-06T10:45:28.692Z,11.53
2023-04-06T10:46:33.085Z,11.56
2023-04-06T10:47:41.228Z,11.50
2023-04-06T10:48:45.061Z,11.54
2023-04-06T10:49:47.085Z,11.55
2023-04-06T10:50:51.266Z,11.53
2023-04-06T10:51:57.147Z,11.47
2023-04-06T10:53:00.933Z,11.46
2023-04-06T10:54:05.603Z,11.48
2023-04-06T10:55:09.328Z,11.44
2023-04-06T10:56:16.273Z,11.46
2023-04-06T10:57:22.074Z,11.39
2023-04-06T10:58:27.770Z,11.36
2023-04-06T10:59:30.051Z,11.34
2023-04-06T11:00:43.324Z,11.37
2023-04-06T11:01:36.470Z,11.29
2023-04-06T11:02:39.148Z,11.29
2023-04-06T11:03:47.380Z,11.25
2023-04-06T11:04:59.589Z,11.24
2023-04-06T11:06:01.588Z,11.21
2023-04-06T11:07:03.516Z,11.19
2023-04-06T11:08:05.685Z,11.14
2023-04-06T11:09:10.772Z,11.14
2023-04-06T11:10:19.490Z,11.05
2023-04-06T11:11:22.829Z,11.02
2023-04-06T11:12:27.094Z,11.05
2023-04-06T11:13:40.361Z,11.00
2023-04-06T11:14:46.019Z,10.96
2023-04-06T11:15:48.772Z,10.93
2023-04-06T11:16:52.461Z,10.94
2023-04-06T11:17:54.491Z,10.98
2023-04-06T11:18:59.335Z,11.02
2023-04-06T11:20:01.838Z,11.04
2023-04-06T11:21:03.857Z,10.99
2023-04-06T11:22:09.580Z,10.97
2023-04-06T11:23:11.603Z,10.91
2023-04-06T11:24:16.697Z,10.92
2023-04-06T11:25:19.196Z,10.93
2023-04-06T11:26:21.300Z,10.98
2023-04-06T11:27:23.189Z,10.88
2023-04-06T11:28:27.055Z,10.91
2023-04-06T11:29:30.436Z,10.92
2023-04-06T11:30:32.998Z,10.92
2023-04-06T11:31:40.306Z,10.92
2023-04-06T11:32:44.545Z,10.91
2023-04-06T11:33:49.631Z,10.96
2023-04-06T11:34:51.630Z,10.97
2023-04-06T11:35:57.435Z,10.93
2023-04-06T11:37:02.604Z,10.93
2023-04-06T11:38:04.794Z,10.89
2023-04-06T11:39:06.949Z,11.01
2023-04-06T11:40:10.587Z,10.94
2023-04-06T11:41:12.827Z,10.97
2023-04-06T11:42:23.853Z,10.94
2023-04-06T11:43:30.811Z,10.98
2023-04-06T11:44:38.935Z,10.93
2023-04-06T11:45:44.154Z,10.99
2023-04-06T11:46:55.342Z,10.97
2023-04-06T11:47:59.420Z,11.00
2023-04-06T11:49:02.665Z,11.01
2023-04-06T11:50:13.054Z,11.04
2023-04-06T11:51:18.790Z,10.98
2023-04-06T11:52:23.835Z,10.98
2023-04-06T11:53:26.642Z,11.02
2023-04-06T11:54:36.600Z,11.05
2023-04-06T11:55:39.145Z,11.10
2023-04-06T11:56:41.436Z,11.18
2023-04-06T11:57:45.172Z,11.16
2023-04-06T11:58:47.106Z,11.20
2023-04-06T11:59:49.601Z,11.25
2023-04-06T12:00:51.562Z,11.27
2023-04-06T12:01:54.131Z,11.25
2023-04-06T12:02:56.296Z,11.28
2023-04-06T12:03:58.934Z,11.36
2023-04-06T12:05:01.076Z,11.35
2023-04-06T12:06:03.335Z,11.37
2023-04-06T12:07:05.687Z,11.45
2023-04-06T12:08:07.744Z,11.44
2023-04-06T12:09:09.716Z,11.50
2023-04-06T12:10:12.698Z,11.48
2023-04-06T12:11:14.954Z,11.55
2023-04-06T12:12:16.830Z,11.60
2023-04-06T12:13:18.800Z,11.73
2023-04-06T12:14:22.050Z,11.71
2023-04-06T12:15:23.926Z,11.79
2023-04-06T12:16:27.142Z,11.82
2023-04-06T12:17:29.183Z,11.82
2023-04-06T12:18:33.881Z,11.84
2023-04-06T12:19:35.837Z,11.81
2023-04-06T12:20:37.999Z,11.77
2023-04-06T12:21:40.167Z,11.77
2023-04-06T12:22:42.033Z,11.78
2023-04-06T12:23:43.901Z,11.73
2023-04-06T12:24:45.770Z,11.74
2023-04-06T12:25:47.644Z,11.81
2023-04-06T12:26:53.907Z,11.79
2023-04-06T12:27:53.859Z,11.79
2023-04-06T12:28:56.686Z,11.82
2023-04-06T12:29:59.232Z,11.76
2023-04-06T12:31:01.591Z,11.82
2023-04-06T12:32:03.587Z,11.85
2023-04-06T12:33:05.545Z,11.84
2023-04-06T12:34:08.787Z,11.84
2023-04-06T12:35:10.764Z,11.85
2023-04-06T12:36:15.717Z,11.82
2023-04-06T12:37:17.776Z,11.81
2023-04-06T12:38:19.881Z,11.80
2023-04-06T12:39:22.421Z,11.83
2023-04-06T12:40:24.619Z,11.86
2023-04-06T12:41:28.210Z,11.77
2023-04-06T12:42:30.252Z,11.76
2023-04-06T12:43:32.215Z,11.73
2023-04-06T12:44:34.221Z,11.74
2023-04-06T12:45:36.361Z,11.71
2023-04-06T12:46:38.354Z,11.64
2023-04-06T12:47:41.183Z,11.59
2023-04-06T12:48:43.399Z,11.60
2023-04-06T12:49:46.258Z,11.56
2023-04-06T12:50:57.052Z,11.57
2023-04-06T12:51:58.984Z,11.56
2023-04-06T12:53:01.009Z,11.55
2023-04-06T12:54:03.580Z,11.57
2023-04-06T12:55:06.751Z,11.55
2023-04-06T12:56:14.942Z,11.52
2023-04-06T12:57:16.954Z,11.49
2023-04-06T12:58:18.820Z,11.51
2023-04-06T12:59:20.755Z,11.51
2023-04-06T13:00:24.056Z,11.46
2023-04-06T13:01:26.481Z,11.44
2023-04-06T13:02:28.692Z,11.49
2023-04-06T13:03:30.895Z,11.51
2023-04-06T13:04:33.113Z,11.38
2023-04-06T13:05:35.346Z,11.42
2023-04-06T13:06:37.567Z,11.41
2023-04-06T13:07:39.538Z,11.43
2023-04-06T13:08:41.658Z,11.47
2023-04-06T13:09:43.921Z,11.50
2023-04-06T13:10:52.200Z,11.39
2023-04-06T13:11:54.999Z,11.41
2023-04-06T13:12:57.002Z,11.34
2023-04-06T13:13:58.889Z,11.46
2023-04-06T13:15:02.302Z,11.47
2023-04-06T13:16:08.085Z,11.40
2023-04-06T13:17:10.275Z,11.40
2023-04-06T13:18:13.312Z,11.47
2023-04-06T13:19:15.310Z,11.45
2023-04-06T13:20:18.618Z,11.37
2023-04-06T13:21:20.639Z,11.44
2023-04-06T13:22:22.679Z,11.48
2023-04-06T13:23:24.759Z,11.43
2023-04-06T13:24:26.840Z,11.43
2023-04-06T13:25:29.836Z,11.49
2023-04-06T13:26:32.206Z,11.47
2023-04-06T13:27:34.490Z,11.47
2023-04-06T13:28:37.106Z,11.46
2023-04-06T13:29:39.037Z,11.47
2023-04-06T13:30:41.355Z,11.48
2023-04-06T13:31:43.279Z,11.51
2023-04-06T13:32:45.451Z,11.48
2023-04-06T13:33:47.471Z,11.47
2023-04-06T13:34:49.852Z,11.51
2023-04-06T13:35:52.104Z,11.55
2023-04-06T13:36:54.415Z,11.53
2023-04-06T13:37:56.486Z,11.51
2023-04-06T13:38:59.179Z,11.54
2023-04-06T13:40:03.386Z,11.59
2023-04-06T13:41:05.993Z,11.64
2023-04-06T13:42:08.136Z,11.68
2023-04-06T13:43:10.113Z,11.68
2023-04-06T13:44:12.097Z,11.70
2023-04-06T13:45:14.095Z,11.77
2023-04-06T13:46:16.668Z,11.73